H07 EFPR-EFPR
Flight info
| Callsign | H07 |
|---|---|
| Flight time | 0h 4m |
| Altitude | 2000 |
| Route | KOTKA |
| Aircraft | H500/L-S/C |
Departure
| Time | 2026-04-25 07:39 |
|---|---|
| Airport | Helsinki East-Redstone Aerodrome (EFPR) |
Arrival
| Time | 2026-04-25 07:43 |
|---|---|
| Airport | Helsinki East-Redstone Aerodrome (EFPR) |
| Time | Latitude | Longitude | Altitude | Speed | Heading |
|---|---|---|---|---|---|
| 2026-04-25 07:36 | 60.48005 | 26.59588 | 78 ft | 0 kts | 261° |
| 2026-04-25 07:39 | 60.48018 | 26.59586 | 78 ft | 5 kts | 281° |
| 2026-04-25 07:39 | 60.48046 | 26.59442 | 102 ft | 24 kts | 256° |
| 2026-04-25 07:39 | 60.47747 | 26.59464 | 285 ft | 80 kts | 186° |
| 2026-04-25 07:39 | 60.47116 | 26.59672 | 687 ft | 106 kts | 181° |
| 2026-04-25 07:40 | 60.46265 | 26.59803 | 859 ft | 131 kts | 178° |
| 2026-04-25 07:40 | 60.45369 | 26.60141 | 1191 ft | 132 kts | 166° |
| 2026-04-25 07:40 | 60.44432 | 26.60885 | 1128 ft | 152 kts | 159° |
| 2026-04-25 07:40 | 60.43475 | 26.61696 | 1300 ft | 147 kts | 165° |
| 2026-04-25 07:41 | 60.42548 | 26.62552 | 1336 ft | 155 kts | 158° |
| 2026-04-25 07:41 | 60.41533 | 26.63509 | 1255 ft | 158 kts | 159° |
| 2026-04-25 07:41 | 60.40604 | 26.64697 | 1316 ft | 158 kts | 145° |
| 2026-04-25 07:41 | 60.39838 | 26.66261 | 1491 ft | 157 kts | 131° |
| 2026-04-25 07:42 | 60.39206 | 26.68123 | 1512 ft | 163 kts | 129° |
| 2026-04-25 07:42 | 60.38552 | 26.70014 | 1494 ft | 166 kts | 129° |
| 2026-04-25 07:42 | 60.37935 | 26.71965 | 1448 ft | 156 kts | 121° |
| 2026-04-25 07:42 | 60.37515 | 26.73820 | 1440 ft | 137 kts | 114° |
| 2026-04-25 07:43 | 60.37258 | 26.75489 | 1349 ft | 107 kts | 106° |
| 2026-04-25 07:43 | 60.37027 | 26.76635 | 1201 ft | 77 kts | 143° |
| 2026-04-25 07:43 | 60.36679 | 26.77264 | 977 ft | 55 kts | 159° |
| 2026-04-25 07:43 | 60.36395 | 26.77701 | 828 ft | 48 kts | 163° |
| 2026-04-25 07:44 | 60.36104 | 26.77949 | 851 ft | 44 kts | 197° |
| 2026-04-25 07:44 | 60.35852 | 26.77800 | 932 ft | 36 kts | 217° |
| 2026-04-25 07:44 | 60.35702 | 26.77718 | 916 ft | 27 kts | 353° |
| 2026-04-25 07:44 | 60.35964 | 26.77907 | 716 ft | 44 kts | 341° |
| 2026-04-25 07:45 | 60.36137 | 26.77615 | 738 ft | 29 kts | 258° |
| 2026-04-25 07:45 | 60.35976 | 26.77523 | 754 ft | 34 kts | 156° |
| 2026-04-25 07:45 | 60.35865 | 26.77751 | 622 ft | 17 kts | 158° |
| 2026-04-25 07:45 | 60.35828 | 26.77858 | 149 ft | 8 kts | 200° |
| 2026-04-25 07:46 | 60.35784 | 26.77890 | 254 ft | 11 kts | 197° |
| 2026-04-25 07:46 | 60.35745 | 26.77889 | 230 ft | 5 kts | 192° |
| 2026-04-25 07:46 | 60.35720 | 26.77883 | 127 ft | 5 kts | 185° |
| 2026-04-25 07:46 | 60.35712 | 26.77889 | 70 ft | 0 kts | 178° |
| 2026-04-25 07:51 | 60.35711 | 26.77889 | 73 ft | 1 kts | 197° |
| 2026-04-25 07:52 | 60.35708 | 26.77881 | 179 ft | 5 kts | 180° |
| 2026-04-25 07:52 | 60.35697 | 26.77869 | 359 ft | 6 kts | 185° |
| 2026-04-25 07:52 | 60.35582 | 26.77439 | 500 ft | 65 kts | 229° |
| 2026-04-25 07:52 | 60.35220 | 26.76535 | 605 ft | 98 kts | 219° |
| 2026-04-25 07:53 | 60.34654 | 26.75578 | 791 ft | 111 kts | 214° |
| 2026-04-25 07:53 | 60.34260 | 26.74223 | 923 ft | 121 kts | 256° |
| 2026-04-25 07:53 | 60.34494 | 26.72635 | 1184 ft | 123 kts | 290° |
| 2026-04-25 07:53 | 60.34860 | 26.71052 | 1328 ft | 125 kts | 283° |
| 2026-04-25 07:54 | 60.35162 | 26.69451 | 1572 ft | 120 kts | 283° |
| 2026-04-25 07:54 | 60.35479 | 26.67875 | 1678 ft | 125 kts | 283° |
| 2026-04-25 07:54 | 60.35772 | 26.66186 | 1646 ft | 131 kts | 280° |
| 2026-04-25 07:54 | 60.36020 | 26.64413 | 1614 ft | 133 kts | 277° |
| 2026-04-25 07:55 | 60.36218 | 26.62586 | 1618 ft | 132 kts | 274° |
| 2026-04-25 07:55 | 60.36372 | 26.60726 | 1497 ft | 136 kts | 271° |
| 2026-04-25 07:55 | 60.36472 | 26.58839 | 1438 ft | 135 kts | 269° |
| 2026-04-25 07:55 | 60.36534 | 26.56948 | 1399 ft | 135 kts | 267° |
| 2026-04-25 07:56 | 60.36564 | 26.55043 | 1266 ft | 138 kts | 265° |
| 2026-04-25 07:56 | 60.36574 | 26.53044 | 1066 ft | 142 kts | 267° |
| 2026-04-25 07:56 | 60.36627 | 26.51093 | 1006 ft | 138 kts | 266° |
| 2026-04-25 07:56 | 60.36656 | 26.49175 | 957 ft | 136 kts | 266° |
| 2026-04-25 07:57 | 60.36661 | 26.47276 | 910 ft | 135 kts | 264° |
| 2026-04-25 07:57 | 60.36660 | 26.45382 | 859 ft | 136 kts | 265° |
| 2026-04-25 07:57 | 60.36686 | 26.43440 | 819 ft | 135 kts | 265° |
| 2026-04-25 07:57 | 60.36719 | 26.41567 | 843 ft | 133 kts | 266° |
| 2026-04-25 07:58 | 60.36732 | 26.39763 | 897 ft | 110 kts | 259° |
| 2026-04-25 07:58 | 60.36680 | 26.38498 | 933 ft | 75 kts | 252° |
| 2026-04-25 07:58 | 60.36646 | 26.37356 | 610 ft | 84 kts | 263° |
| 2026-04-25 07:58 | 60.36667 | 26.36409 | 674 ft | 49 kts | 269° |
| 2026-04-25 07:59 | 60.36719 | 26.35921 | 643 ft | 27 kts | 269° |
| 2026-04-25 07:59 | 60.36769 | 26.35471 | 602 ft | 35 kts | 280° |
| 2026-04-25 07:59 | 60.36855 | 26.35016 | 585 ft | 36 kts | 278° |
| 2026-04-25 07:59 | 60.36973 | 26.34671 | 574 ft | 21 kts | 252° |
| 2026-04-25 08:00 | 60.36850 | 26.34823 | 503 ft | 22 kts | 164° |
| 2026-04-25 08:00 | 60.36821 | 26.34967 | 348 ft | 6 kts | 175° |
| 2026-04-25 08:00 | 60.36790 | 26.35004 | 286 ft | 5 kts | 180° |
| 2026-04-25 08:00 | 60.36768 | 26.35011 | 211 ft | 4 kts | 175° |
| 2026-04-25 08:01 | 60.36744 | 26.35030 | 128 ft | 3 kts | 182° |
| 2026-04-25 08:01 | 60.36751 | 26.35041 | 62 ft | 3 kts | 179° |
| 2026-04-25 08:01 | 60.36757 | 26.35055 | 21 ft | 2 kts | 212° |
| 2026-04-25 08:01 | 60.36752 | 26.35054 | 22 ft | 0 kts | 186° |
| 2026-04-25 08:02 | 60.36750 | 26.35053 | 14 ft | 0 kts | 165° |
| 2026-04-25 08:02 | 60.36750 | 26.35055 | 12 ft | 0 kts | 171° |
| 2026-04-25 08:06 | 60.36772 | 26.35081 | 61 ft | 17 kts | 336° |
| 2026-04-25 08:06 | 60.36992 | 26.34748 | 177 ft | 65 kts | 263° |
| 2026-04-25 08:07 | 60.37351 | 26.34411 | 401 ft | 105 kts | 31° |
| 2026-04-25 08:07 | 60.38122 | 26.34903 | 502 ft | 125 kts | 29° |
| 2026-04-25 08:07 | 60.38795 | 26.36152 | 510 ft | 141 kts | 48° |
| 2026-04-25 08:07 | 60.39407 | 26.37690 | 618 ft | 142 kts | 51° |
| 2026-04-25 08:08 | 60.40072 | 26.39269 | 581 ft | 149 kts | 46° |
| 2026-04-25 08:08 | 60.40783 | 26.40764 | 636 ft | 147 kts | 45° |
| 2026-04-25 08:08 | 60.41441 | 26.42343 | 676 ft | 148 kts | 53° |
| 2026-04-25 08:08 | 60.42033 | 26.44054 | 708 ft | 148 kts | 57° |
| 2026-04-25 08:09 | 60.42594 | 26.45822 | 692 ft | 153 kts | 55° |
| 2026-04-25 08:09 | 60.43249 | 26.47701 | 452 ft | 161 kts | 52° |
| 2026-04-25 08:09 | 60.43876 | 26.49565 | 268 ft | 162 kts | 60° |
| 2026-04-25 08:09 | 60.44387 | 26.51513 | 123 ft | 160 kts | 62° |
| 2026-04-25 08:10 | 60.44934 | 26.53390 | 202 ft | 147 kts | 58° |
| 2026-04-25 08:10 | 60.45489 | 26.55108 | 285 ft | 137 kts | 55° |
| 2026-04-25 08:10 | 60.46116 | 26.56496 | 506 ft | 131 kts | 42° |
| 2026-04-25 08:10 | 60.46818 | 26.57714 | 673 ft | 134 kts | 37° |
| 2026-04-25 08:11 | 60.47491 | 26.58757 | 679 ft | 90 kts | 33° |
| 2026-04-25 08:11 | 60.47770 | 26.59227 | 607 ft | 36 kts | 39° |
| 2026-04-25 08:11 | 60.47865 | 26.59452 | 306 ft | 21 kts | 55° |
| 2026-04-25 08:11 | 60.47955 | 26.59591 | 125 ft | 17 kts | 319° |
| 2026-04-25 08:12 | 60.47993 | 26.59547 | 91 ft | 2 kts | 255° |
| 2026-04-25 08:12 | 60.47995 | 26.59530 | 81 ft | 1 kts | 251° |
| 2026-04-25 08:12 | 60.47994 | 26.59526 | 79 ft | 0 kts | 253° |
| 2026-04-25 08:12 | 60.47998 | 26.59524 | 83 ft | 1 kts | 249° |
| 2026-04-25 08:13 | 60.48000 | 26.59524 | 78 ft | 0 kts | 236° |
| 2026-04-25 08:13 | 60.47998 | 26.59521 | 78 ft | 0 kts | 255° |